Time;durP1;ratioP1;P1;durP2;ratioP2;P2;SDS_P1;SDS_P2;PMS_P1;PMS_P2;Temp;Humidity;BMP_temperature;BMP_pressure;BME280_temperature;BME280_humidity;BME280_pressure;Samples;Min_cycle;Max_cycle;Signal;HPM_P1;HPM_P2
2023/01/11 00:01:04;;;;;;;0.50;0.37;;;10.10;99.90;;;;;;5135953;27;20552;-61
2023/01/11 00:03:32;;;;;;;1.03;0.50;;;10.00;99.90;;;;;;5136044;27;20451;-61
2023/01/11 00:05:59;;;;;;;3.10;0.70;;;10.10;99.90;;;;;;5135485;27;20430;-61
2023/01/11 00:08:27;;;;;;;0.60;0.50;;;10.10;99.90;;;;;;5135915;27;20876;-61
2023/01/11 00:10:54;;;;;;;0.93;0.53;;;10.10;99.90;;;;;;5135826;27;20819;-61
2023/01/11 00:13:21;;;;;;;3.30;0.57;;;10.10;99.90;;;;;;5135689;27;20469;-61
2023/01/11 00:15:47;;;;;;;1.20;0.67;;;10.20;99.90;;;;;;5135506;27;20502;-61
2023/01/11 00:18:15;;;;;;;6.43;0.87;;;10.10;99.90;;;;;;5135683;27;20453;-61
2023/01/11 00:20:42;;;;;;;0.90;0.33;;;10.20;99.90;;;;;;5136002;27;20452;-61
2023/01/11 00:23:09;;;;;;;0.80;0.30;;;10.20;99.90;;;;;;5135192;27;20839;-61
2023/01/11 00:25:36;;;;;;;2.90;0.70;;;10.20;99.90;;;;;;5135285;27;20959;-61
2023/01/11 00:28:03;;;;;;;0.50;0.40;;;10.20;99.90;;;;;;5135486;27;20457;-61
2023/01/11 00:30:30;;;;;;;3.33;0.50;;;10.20;99.90;;;;;;5135487;27;20445;-61
2023/01/11 00:32:57;;;;;;;1.93;0.50;;;10.20;99.90;;;;;;5135155;27;20475;-60
2023/01/11 00:35:27;;;;;;;2.20;0.50;;;10.20;99.90;;;;;;5135257;27;20433;-61
2023/01/11 00:37:54;;;;;;;5.20;0.40;;;10.20;99.90;;;;;;5135299;27;20905;-61
2023/01/11 00:40:22;;;;;;;0.50;0.30;;;10.30;99.90;;;;;;5134812;27;20965;-61
2023/01/11 00:48:18;;;;;;;0.50;0.30;;;10.50;99.90;;;;;;5135193;27;20402;-61
2023/01/11 00:50:46;;;;;;;0.43;0.30;;;10.50;99.90;;;;;;5135023;27;20453;-61
2023/01/11 00:53:13;;;;;;;0.50;0.40;;;10.60;99.90;;;;;;5134901;27;20466;-61
2023/01/11 00:55:39;;;;;;;0.40;0.30;;;10.70;99.90;;;;;;5135412;27;20490;-61
2023/01/11 00:58:06;;;;;;;0.40;0.40;;;10.80;99.90;;;;;;5135022;27;20442;-61
2023/01/11 01:00:33;;;;;;;1.10;0.40;;;10.80;99.90;;;;;;5134843;27;20453;-61
2023/01/11 01:03:00;;;;;;;1.87;0.30;;;10.90;99.90;;;;;;5134781;27;20464;-61
2023/01/11 01:05:26;;;;;;;0.93;0.40;;;11.00;99.90;;;;;;5134731;27;20457;-61
2023/01/11 01:07:54;;;;;;;1.90;0.40;;;11.00;99.90;;;;;;5134824;27;20441;-61
2023/01/11 01:10:21;;;;;;;1.13;0.30;;;11.00;99.90;;;;;;5135038;27;20811;-61
2023/01/11 01:15:35;;;;;;;0.90;0.57;;;11.20;99.90;;;;;;5134321;27;20448;-61
2023/01/11 01:18:02;;;;;;;4.17;0.53;;;11.20;99.90;;;;;;5133251;27;20450;-60
2023/01/11 01:20:28;;;;;;;1.13;0.47;;;11.30;99.90;;;;;;5134572;27;20446;-61
2023/01/11 01:22:56;;;;;;;0.60;0.50;;;11.30;99.90;;;;;;5134302;27;20466;-61
2023/01/11 01:25:23;;;;;;;0.60;0.50;;;11.30;99.90;;;;;;5134600;27;20794;-61
2023/01/11 01:27:50;;;;;;;0.43;0.33;;;11.40;99.90;;;;;;5134561;27;20533;-61
2023/01/11 01:30:17;;;;;;;0.70;0.40;;;11.40;99.90;;;;;;5134084;27;20941;-61
2023/01/11 01:32:44;;;;;;;0.70;0.43;;;11.50;99.90;;;;;;5134282;27;20501;-61
2023/01/11 01:35:11;;;;;;;1.10;0.30;;;11.50;99.90;;;;;;5134483;27;20427;-61
2023/01/11 01:37:37;;;;;;;1.37;0.50;;;11.50;99.90;;;;;;5134348;27;20490;-61
2023/01/11 01:40:07;;;;;;;0.87;0.30;;;11.50;99.90;;;;;;5134028;28;20458;-61
2023/01/11 01:42:33;;;;;;;0.30;0.30;;;11.50;99.90;;;;;;5133901;28;20961;-61
2023/01/11 01:45:05;;;;;;;0.97;0.30;;;11.50;99.90;;;;;;5134348;28;20449;-61
2023/01/11 01:47:38;;;;;;;1.43;0.30;;;11.60;99.90;;;;;;5134374;28;20504;-61
2023/01/11 01:50:11;;;;;;;0.57;0.43;;;11.60;99.90;;;;;;5134442;28;20426;-61
2023/01/11 01:52:38;;;;;;;4.00;0.50;;;11.60;99.90;;;;;;5134324;28;20469;-61
2023/01/11 01:55:12;;;;;;;13.17;1.13;;;11.60;99.90;;;;;;5133945;28;20974;-61
2023/01/11 01:57:42;;;;;;;1.30;0.30;;;11.60;99.90;;;;;;5134298;28;20465;-61
2023/01/11 02:00:11;;;;;;;1.00;0.50;;;11.70;99.90;;;;;;5133823;28;20933;-61
2023/01/11 02:02:39;;;;;;;1.00;0.40;;;11.70;99.90;;;;;;5134095;28;20547;-61
2023/01/11 02:05:08;;;;;;;0.40;0.30;;;11.80;99.90;;;;;;5134186;28;20472;-61
2023/01/11 02:07:37;;;;;;;0.50;0.30;;;11.70;99.90;;;;;;5134040;28;20427;-61
2023/01/11 02:10:09;;;;;;;1.47;0.30;;;11.80;99.90;;;;;;5134028;28;20881;-61
2023/01/11 02:12:38;;;;;;;1.40;0.30;;;11.80;99.90;;;;;;5134329;28;20473;-61
2023/01/11 02:15:07;;;;;;;0.70;0.30;;;11.80;99.90;;;;;;5134024;28;20528;-61
2023/01/11 02:17:33;;;;;;;0.40;0.30;;;11.80;99.90;;;;;;5133966;28;20482;-61
2023/01/11 02:20:13;;;;;;;0.57;0.20;;;11.80;99.90;;;;;;5133669;28;20946;-61
2023/01/11 02:23:25;;;;;;;1.53;1.43;;;11.80;99.90;;;;;;5134134;28;20486;-61
2023/01/11 02:26:44;;;;;;;0.97;0.50;;;11.80;99.90;;;;;;5133700;28;20430;-61
2023/01/11 02:29:16;;;;;;;0.33;0.27;;;11.80;99.90;;;;;;5134325;27;20431;-61
2023/01/11 02:31:50;;;;;;;0.30;0.20;;;11.80;99.90;;;;;;5137817;27;20453;-61
2023/01/11 02:34:28;;;;;;;2.97;0.60;;;11.80;99.90;;;;;;5137782;27;20431;-61
2023/01/11 02:37:11;;;;;;;2.30;0.40;;;11.80;99.90;;;;;;5137758;27;20466;-61
2023/01/11 02:39:45;;;;;;;1.70;0.40;;;11.80;99.90;;;;;;5137577;27;20457;-61
2023/01/11 02:45:16;;;;;;;1.53;0.40;;;11.80;99.90;;;;;;5137737;27;20451;-61
2023/01/11 02:47:47;;;;;;;1.67;0.60;;;11.80;99.90;;;;;;5137364;27;20958;-61
2023/01/11 02:50:21;;;;;;;0.40;0.20;;;11.80;99.90;;;;;;5137545;27;20430;-61
2023/01/11 02:52:53;;;;;;;0.40;0.30;;;11.80;99.90;;;;;;5137452;27;20489;-61
2023/01/11 02:55:24;;;;;;;3.60;0.40;;;11.80;99.90;;;;;;5138047;27;20434;-61
2023/01/11 02:57:54;;;;;;;1.23;0.40;;;11.80;99.90;;;;;;5137575;27;20474;-61
2023/01/11 03:00:23;;;;;;;0.60;0.30;;;11.80;99.90;;;;;;5137271;27;20450;-62
2023/01/11 03:03:07;;;;;;;1.90;0.30;;;11.90;99.90;;;;;;5137183;27;20462;-61
2023/01/11 03:05:37;;;;;;;0.30;0.20;;;11.90;99.90;;;;;;5137336;27;20433;-61
2023/01/11 03:08:17;;;;;;;1.83;0.27;;;12.00;99.90;;;;;;5137416;27;20430;-61
2023/01/11 03:10:55;;;;;;;2.43;0.50;;;12.00;99.90;;;;;;5137309;27;20791;-62
2023/01/11 03:13:32;;;;;;;1.80;0.70;;;12.00;99.90;;;;;;5137557;27;20473;-61
2023/01/11 03:16:14;;;;;;;1.07;0.30;;;12.10;99.90;;;;;;5136750;27;20871;-61
2023/01/11 03:18:48;;;;;;;0.40;0.20;;;12.10;99.90;;;;;;5137215;27;20429;-61
2023/01/11 03:21:38;;;;;;;0.30;0.20;;;12.10;99.90;;;;;;5137061;27;20441;-61
2023/01/11 03:24:12;;;;;;;0.60;0.30;;;12.10;99.90;;;;;;5136816;27;20437;-61
2023/01/11 03:26:52;;;;;;;0.40;0.27;;;12.20;99.90;;;;;;5136906;27;20425;-61
2023/01/11 03:29:27;;;;;;;0.40;0.30;;;12.20;99.90;;;;;;5137190;27;20431;-61
2023/01/11 03:32:05;;;;;;;0.70;0.30;;;12.20;99.90;;;;;;5136620;27;20552;-60
2023/01/11 03:34:37;;;;;;;0.60;0.30;;;12.20;99.90;;;;;;5136638;27;20441;-60
2023/01/11 03:37:07;;;;;;;1.00;0.57;;;12.20;99.90;;;;;;5136539;27;20458;-60
2023/01/11 03:39:37;;;;;;;0.90;0.50;;;12.20;99.90;;;;;;5136383;27;20446;-60
2023/01/11 03:42:07;;;;;;;2.33;0.40;;;12.10;99.90;;;;;;5136010;27;20477;-60
2023/01/11 03:44:40;;;;;;;0.70;0.30;;;12.10;99.90;;;;;;5136187;27;20932;-60
2023/01/11 03:47:10;;;;;;;1.63;0.30;;;12.10;99.90;;;;;;5136433;27;20769;-60
2023/01/11 03:49:40;;;;;;;0.87;0.47;;;12.10;99.90;;;;;;5136229;27;20434;-60
2023/01/11 03:52:11;;;;;;;2.33;0.40;;;12.10;99.90;;;;;;5136277;27;20462;-60
2023/01/11 03:54:38;;;;;;;4.50;0.50;;;12.10;99.90;;;;;;5136202;27;20437;-60
2023/01/11 03:57:10;;;;;;;2.80;0.40;;;12.10;99.90;;;;;;5135749;27;21023;-60
2023/01/11 03:59:38;;;;;;;1.60;0.90;;;12.10;99.90;;;;;;5136156;27;20435;-60
2023/01/11 04:02:05;;;;;;;1.33;0.30;;;12.10;99.90;;;;;;5135968;27;20466;-60
2023/01/11 04:04:33;;;;;;;0.57;0.30;;;12.10;99.90;;;;;;5136013;27;20446;-60
2023/01/11 04:07:00;;;;;;;1.80;0.30;;;12.10;99.90;;;;;;5135997;27;20449;-60
2023/01/11 04:09:26;;;;;;;1.13;0.30;;;12.10;99.90;;;;;;5135900;27;20447;-60
2023/01/11 04:11:53;;;;;;;2.17;0.37;;;12.10;99.90;;;;;;5135365;27;20470;-60
2023/01/11 04:14:20;;;;;;;1.53;0.30;;;12.10;99.90;;;;;;5135793;27;20434;-60
2023/01/11 04:16:46;;;;;;;1.67;0.30;;;12.10;99.90;;;;;;5135933;27;20508;-60
2023/01/11 04:19:13;;;;;;;0.83;0.30;;;12.00;99.90;;;;;;5135574;27;20457;-60
2023/01/11 04:21:41;;;;;;;0.40;0.20;;;12.00;99.90;;;;;;5135700;27;20465;-60
2023/01/11 04:24:08;;;;;;;0.70;0.30;;;12.00;99.90;;;;;;5135459;27;20953;-61
2023/01/11 04:26:35;;;;;;;1.23;0.40;;;12.10;99.90;;;;;;5135255;27;20964;-61
2023/01/11 04:29:01;;;;;;;0.60;0.30;;;12.10;99.90;;;;;;5135514;27;20461;-61
2023/01/11 04:31:28;;;;;;;0.87;0.30;;;12.00;99.90;;;;;;5134958;27;20473;-61
2023/01/11 04:33:55;;;;;;;1.07;0.40;;;12.00;99.90;;;;;;5135433;27;20808;-61
2023/01/11 04:36:22;;;;;;;1.63;0.67;;;12.00;99.90;;;;;;5135335;27;20443;-61
2023/01/11 04:38:50;;;;;;;0.50;0.30;;;12.00;99.90;;;;;;5135142;27;20456;-61
2023/01/11 04:44:00;;;;;;;0.77;0.30;;;12.10;99.90;;;;;;5135411;27;20798;-61
2023/01/11 04:46:27;;;;;;;2.17;0.33;;;12.10;99.90;;;;;;5135174;27;20456;-61
2023/01/11 04:48:55;;;;;;;0.70;0.37;;;12.10;99.90;;;;;;5135223;27;20453;-60
2023/01/11 04:51:22;;;;;;;2.50;0.40;;;12.10;99.90;;;;;;5134792;27;20969;-60
2023/01/11 04:53:50;;;;;;;0.50;0.30;;;12.10;99.90;;;;;;5134563;27;20435;-60
2023/01/11 04:56:17;;;;;;;0.60;0.40;;;12.10;99.90;;;;;;5134983;27;20482;-61
2023/01/11 04:58:44;;;;;;;0.50;0.30;;;12.10;99.90;;;;;;5134908;27;20597;-61
2023/01/11 05:01:13;;;;;;;2.80;0.30;;;12.20;99.90;;;;;;5134784;27;20453;-61
2023/01/11 05:03:40;;;;;;;0.40;0.20;;;12.20;99.90;;;;;;5134923;27;20442;-61
2023/01/11 05:06:07;;;;;;;0.67;0.30;;;12.20;99.90;;;;;;5134681;27;21002;-61
2023/01/11 05:08:34;;;;;;;1.27;0.40;;;12.20;99.90;;;;;;5134522;27;20824;-61
2023/01/11 05:11:04;;;;;;;4.00;0.30;;;12.20;99.90;;;;;;5134722;27;20446;-61
2023/01/11 05:13:44;;;;;;;1.33;0.60;;;12.20;99.90;;;;;;5134720;27;20442;-61
2023/01/11 05:16:12;;;;;;;4.17;0.30;;;12.20;99.90;;;;;;5134372;27;20921;-61
2023/01/11 05:18:40;;;;;;;2.47;0.60;;;12.20;99.90;;;;;;5134693;27;20478;-61
2023/01/11 05:21:07;;;;;;;0.60;0.40;;;12.20;99.90;;;;;;5134609;27;20466;-61
2023/01/11 05:23:34;;;;;;;0.70;0.30;;;12.20;99.90;;;;;;5134612;27;20950;-60
2023/01/11 05:26:03;;;;;;;6.10;0.60;;;12.20;99.90;;;;;;5134822;27;20442;-60
2023/01/11 05:28:30;;;;;;;0.67;0.47;;;12.20;99.90;;;;;;5134667;27;20434;-60
2023/01/11 05:30:57;;;;;;;2.93;0.60;;;12.20;99.90;;;;;;5134765;27;20457;-60
2023/01/11 05:33:23;;;;;;;1.73;0.50;;;12.20;99.90;;;;;;5134455;27;20484;-61
2023/01/11 05:35:50;;;;;;;2.30;0.40;;;12.20;99.90;;;;;;5134587;27;20446;-61
2023/01/11 05:38:17;;;;;;;0.90;0.30;;;12.30;99.90;;;;;;5134668;27;20494;-61
2023/01/11 05:40:44;;;;;;;0.90;0.50;;;12.20;99.90;;;;;;5134336;27;20462;-60
2023/01/11 05:43:12;;;;;;;4.63;0.43;;;12.30;99.90;;;;;;5134603;28;20574;-60
2023/01/11 05:45:37;;;;;;;0.80;0.53;;;12.30;99.90;;;;;;5134960;28;20442;-60
2023/01/11 05:48:04;;;;;;;0.40;0.37;;;12.30;99.90;;;;;;5134646;28;20446;-60
2023/01/11 05:50:31;;;;;;;0.60;0.40;;;12.20;99.90;;;;;;5134980;28;20211;-60
2023/01/11 05:52:58;;;;;;;0.90;0.33;;;12.20;99.90;;;;;;5134944;28;20481;-60
2023/01/11 05:55:25;;;;;;;0.83;0.20;;;12.30;99.90;;;;;;5135710;28;20639;-60
2023/01/11 05:57:51;;;;;;;2.73;0.40;;;12.20;99.90;;;;;;5136696;28;20482;-60
2023/01/11 06:00:20;;;;;;;2.47;0.40;;;12.20;99.90;;;;;;5135214;28;20450;-60
2023/01/11 06:02:47;;;;;;;1.60;0.30;;;12.20;99.90;;;;;;5134350;28;20470;-60
2023/01/11 06:05:14;;;;;;;0.60;0.40;;;12.20;99.90;;;;;;5136524;27;20450;-60
2023/01/11 06:07:40;;;;;;;2.53;0.50;;;12.20;99.90;;;;;;5138741;27;20441;-60
2023/01/11 06:10:09;;;;;;;0.60;0.33;;;12.20;99.90;;;;;;5138346;27;20458;-61
2023/01/11 06:12:35;;;;;;;1.57;0.30;;;12.20;99.90;;;;;;5138284;27;20515;-61
2023/01/11 06:15:02;;;;;;;0.93;0.40;;;12.20;99.90;;;;;;5138408;27;20437;-61
2023/01/11 06:17:30;;;;;;;0.70;0.40;;;12.20;99.90;;;;;;5137797;27;20992;-61
2023/01/11 06:19:57;;;;;;;0.63;0.30;;;12.20;99.90;;;;;;5138100;27;20506;-61
2023/01/11 06:22:23;;;;;;;1.17;0.50;;;12.20;99.90;;;;;;5137990;27;20461;-60
2023/01/11 06:24:50;;;;;;;1.60;0.40;;;12.20;99.90;;;;;;5137998;27;20449;-61
2023/01/11 06:27:17;;;;;;;2.43;0.67;;;12.20;99.90;;;;;;5138001;27;20494;-61
2023/01/11 06:29:44;;;;;;;1.60;0.33;;;12.20;99.90;;;;;;5138037;27;20545;-61
2023/01/11 06:32:10;;;;;;;1.57;0.40;;;12.30;99.90;;;;;;5137446;27;21014;-61
2023/01/11 06:34:39;;;;;;;1.07;0.30;;;12.30;99.90;;;;;;5137690;27;20455;-61
2023/01/11 06:37:05;;;;;;;1.00;0.30;;;12.20;99.90;;;;;;5137663;27;20450;-61
2023/01/11 06:39:32;;;;;;;0.40;0.30;;;12.30;99.90;;;;;;5137558;27;20465;-61
2023/01/11 06:41:59;;;;;;;0.73;0.30;;;12.20;99.90;;;;;;5137693;27;20489;-61
2023/01/11 06:44:26;;;;;;;0.40;0.30;;;12.20;99.90;;;;;;5137552;27;20442;-61
2023/01/11 06:46:52;;;;;;;2.20;0.50;;;12.20;99.90;;;;;;5137576;27;20457;-61
2023/01/11 06:49:19;;;;;;;1.73;0.47;;;12.10;99.90;;;;;;5137137;27;20945;-61
2023/01/11 06:51:47;;;;;;;2.20;0.30;;;12.10;99.90;;;;;;5137355;27;20466;-61
2023/01/11 06:54:14;;;;;;;0.43;0.23;;;12.10;99.90;;;;;;5137417;27;20469;-61
2023/01/11 06:56:40;;;;;;;0.40;0.30;;;12.10;99.90;;;;;;5137371;27;20446;-61
2023/01/11 06:59:07;;;;;;;0.50;0.30;;;12.00;99.90;;;;;;5137205;27;20481;-61
2023/01/11 07:01:34;;;;;;;0.60;0.40;;;12.00;99.90;;;;;;5137159;27;20489;-61
2023/01/11 07:04:01;;;;;;;0.40;0.30;;;12.00;99.90;;;;;;5137500;27;20445;-61
2023/01/11 07:06:30;;;;;;;1.07;0.30;;;12.10;99.90;;;;;;5136882;27;20961;-61
2023/01/11 07:08:58;;;;;;;0.70;0.30;;;12.10;99.90;;;;;;5137120;27;20460;-61
2023/01/11 07:11:25;;;;;;;0.63;0.63;;;12.00;99.90;;;;;;5136619;27;21043;-61
2023/01/11 07:13:52;;;;;;;2.10;0.50;;;12.00;99.90;;;;;;5137001;27;20453;-61
2023/01/11 07:16:18;;;;;;;0.50;0.40;;;12.00;99.90;;;;;;5136520;27;20449;-61
2023/01/11 07:18:45;;;;;;;1.17;0.20;;;12.00;99.90;;;;;;5136838;27;20466;-60
2023/01/11 07:21:12;;;;;;;0.47;0.40;;;12.00;99.90;;;;;;5136737;27;20450;-60
2023/01/11 07:23:38;;;;;;;0.50;0.40;;;12.00;99.90;;;;;;5136940;27;20446;-60
2023/01/11 07:26:06;;;;;;;1.33;0.40;;;12.00;99.90;;;;;;5136374;27;20929;-60
2023/01/11 07:28:33;;;;;;;1.00;0.50;;;11.90;99.90;;;;;;5136827;27;20447;-60
2023/01/11 07:31:00;;;;;;;0.87;0.40;;;12.00;99.90;;;;;;5136765;27;20873;-60
2023/01/11 07:33:27;;;;;;;0.93;0.40;;;11.90;99.90;;;;;;5136661;27;20450;-61
2023/01/11 07:35:54;;;;;;;0.67;0.43;;;11.90;99.90;;;;;;5136625;27;20473;-61
2023/01/11 07:38:20;;;;;;;1.23;0.70;;;11.90;99.90;;;;;;5136212;27;21004;-61
2023/01/11 07:40:47;;;;;;;3.07;0.60;;;11.90;99.90;;;;;;5136544;27;20465;-61
2023/01/11 07:43:14;;;;;;;0.80;0.70;;;11.90;99.90;;;;;;5136076;27;20857;-61
2023/01/11 07:45:43;;;;;;;2.43;1.07;;;11.90;99.90;;;;;;5136361;27;20477;-61
2023/01/11 07:48:11;;;;;;;1.97;1.20;;;12.00;99.90;;;;;;5136392;27;20441;-61
2023/01/11 07:50:39;;;;;;;2.93;0.90;;;12.00;99.90;;;;;;5136305;27;20453;-61
2023/01/11 07:53:07;;;;;;;1.13;0.93;;;12.00;99.90;;;;;;5136086;27;20481;-61
2023/01/11 07:55:33;;;;;;;4.97;1.47;;;12.00;99.90;;;;;;5135930;27;20813;-61
2023/01/11 07:58:01;;;;;;;2.20;1.37;;;12.00;99.90;;;;;;5136409;27;20493;-61
2023/01/11 08:00:30;;;;;;;2.50;1.30;;;12.00;99.90;;;;;;5136133;27;20487;-61
2023/01/11 08:02:57;;;;;;;5.80;1.10;;;11.90;99.90;;;;;;5136826;27;20474;-61
2023/01/11 08:05:24;;;;;;;2.40;1.37;;;11.90;99.90;;;;;;5135611;27;20969;-61
2023/01/11 08:07:50;;;;;;;2.20;1.47;;;11.90;99.90;;;;;;5135891;27;20443;-61
2023/01/11 08:10:17;;;;;;;2.40;1.40;;;12.00;99.90;;;;;;5135843;27;20442;-61
2023/01/11 08:15:32;;;;;;;1.47;1.37;;;12.00;99.90;;;;;;5135985;27;20397;-61
2023/01/11 08:17:59;;;;;;;1.40;1.13;;;11.90;99.90;;;;;;5135723;27;20486;-61
2023/01/11 08:20:27;;;;;;;2.33;1.30;;;12.00;99.90;;;;;;5135788;27;20906;-61
2023/01/11 08:22:54;;;;;;;2.40;1.03;;;11.90;99.90;;;;;;5135524;27;20477;-61
2023/01/11 08:25:21;;;;;;;5.73;1.40;;;12.00;99.90;;;;;;5135677;27;20450;-61
2023/01/11 08:27:49;;;;;;;2.93;1.20;;;12.00;99.90;;;;;;5135402;27;20446;-61
2023/01/11 08:30:16;;;;;;;4.40;1.50;;;12.00;99.90;;;;;;5135316;27;20438;-61
2023/01/11 08:32:44;;;;;;;2.20;1.00;;;12.00;99.90;;;;;;5136065;27;20548;-61
2023/01/11 08:35:11;;;;;;;3.73;1.70;;;11.90;99.90;;;;;;5135302;27;20446;-61
2023/01/11 08:37:38;;;;;;;3.13;1.17;;;11.90;99.90;;;;;;5135268;27;20453;-61
2023/01/11 08:40:06;;;;;;;2.40;1.50;;;12.00;99.90;;;;;;5134836;27;20952;-61
2023/01/11 08:42:33;;;;;;;4.73;1.77;;;12.00;99.90;;;;;;5135078;27;20485;-61
2023/01/11 08:44:59;;;;;;;2.57;1.50;;;12.00;99.90;;;;;;5134703;27;20431;-60
2023/01/11 08:47:26;;;;;;;2.97;2.00;;;12.00;99.90;;;;;;5135113;27;20439;-61
2023/01/11 08:49:54;;;;;;;7.07;2.23;;;12.00;99.90;;;;;;5135613;27;20423;-61
2023/01/11 08:52:21;;;;;;;2.80;1.90;;;12.00;99.90;;;;;;5135061;27;20552;-61
2023/01/11 08:54:48;;;;;;;4.13;2.30;;;12.00;99.90;;;;;;5135139;27;20438;-61
2023/01/11 08:57:14;;;;;;;5.70;3.20;;;12.00;99.90;;;;;;5135065;27;20452;-61
2023/01/11 08:59:41;;;;;;;5.53;3.03;;;11.90;99.90;;;;;;5134738;27;20466;-61
2023/01/11 09:02:09;;;;;;;9.80;4.80;;;12.00;99.90;;;;;;5134880;27;20466;-61
2023/01/11 09:04:36;;;;;;;4.37;3.30;;;12.00;99.90;;;;;;5134795;27;20454;-61
2023/01/11 09:07:04;;;;;;;10.40;5.07;;;12.00;99.90;;;;;;5134548;27;20891;-61
2023/01/11 09:09:31;;;;;;;7.00;4.37;;;12.10;99.90;;;;;;5134805;27;20434;-61
2023/01/11 09:11:59;;;;;;;18.13;5.60;;;12.10;99.90;;;;;;5134637;27;20557;-61
2023/01/11 09:14:28;;;;;;;10.60;5.60;;;12.10;99.90;;;;;;5134707;27;20504;-61
2023/01/11 09:16:56;;;;;;;9.87;5.30;;;12.10;99.90;;;;;;5134713;27;20438;-61
2023/01/11 09:19:23;;;;;;;13.30;4.97;;;12.10;99.90;;;;;;5134690;27;20470;-61
2023/01/11 09:21:50;;;;;;;15.00;5.80;;;12.00;99.90;;;;;;5134634;27;20469;-61
2023/01/11 09:24:18;;;;;;;8.23;6.30;;;12.00;99.90;;;;;;5134623;27;20873;-61
2023/01/11 09:26:45;;;;;;;11.50;5.83;;;12.00;99.90;;;;;;5134589;27;20455;-61
2023/01/11 09:29:12;;;;;;;12.03;6.17;;;12.00;99.90;;;;;;5134255;27;20951;-61
2023/01/11 09:31:39;;;;;;;10.47;6.53;;;12.00;99.90;;;;;;5134515;27;20466;-61
2023/01/11 09:34:09;;;;;;;19.23;6.60;;;12.00;99.90;;;;;;5134665;27;20456;-61
2023/01/11 09:36:38;;;;;;;13.23;5.97;;;12.00;99.90;;;;;;5134403;27;20478;-61
2023/01/11 09:39:07;;;;;;;12.57;6.37;;;12.00;99.90;;;;;;5134448;27;20485;-61
2023/01/11 09:42:19;;;;;;;14.57;6.70;;;11.90;99.90;;;;;;5133176;27;21051;-60
2023/01/11 09:44:51;;;;;;;10.70;5.83;;;11.90;99.90;;;;;;5134027;28;20916;-61
2023/01/11 09:47:28;;;;;;;18.73;6.20;;;11.90;99.90;;;;;;5133841;28;20439;-60
2023/01/11 09:49:58;;;;;;;8.70;5.60;;;11.90;99.90;;;;;;5134364;28;20436;-61
2023/01/11 09:52:28;;;;;;;14.50;5.27;;;11.90;99.90;;;;;;5134233;28;20469;-61
2023/01/11 09:54:57;;;;;;;15.67;5.93;;;11.80;99.90;;;;;;5134006;28;20446;-61
2023/01/11 09:57:40;;;;;;;11.90;5.73;;;11.80;99.90;;;;;;5129304;28;20446;-60
2023/01/11 10:00:18;;;;;;;16.20;6.50;;;11.80;99.90;;;;;;5114228;28;20471;-61
2023/01/11 10:02:58;;;;;;;11.53;6.10;;;11.70;99.90;;;;;;5113571;28;20478;-61
2023/01/11 10:05:41;;;;;;;17.90;8.40;;;11.70;99.90;;;;;;5113666;28;20443;-61
2023/01/11 10:08:28;;;;;;;18.17;6.70;;;11.70;99.90;;;;;;5126421;28;20449;-60
2023/01/11 10:11:00;;;;;;;18.20;6.93;;;11.70;99.90;;;;;;5134387;28;20433;-61
2023/01/11 10:13:42;;;;;;;14.47;6.50;;;11.80;99.90;;;;;;5113317;28;20451;-60
2023/01/11 10:16:23;;;;;;;14.03;5.80;;;11.80;99.90;;;;;;5113587;28;20433;-61
2023/01/11 10:19:03;;;;;;;15.60;7.00;;;11.80;99.90;;;;;;5113742;28;20513;-61
2023/01/11 10:21:36;;;;;;;14.40;6.30;;;11.80;99.90;;;;;;5113357;28;20473;-61
2023/01/11 10:24:10;;;;;;;14.23;6.60;;;11.80;99.90;;;;;;5112843;28;20446;-61
2023/01/11 10:26:40;;;;;;;12.30;6.13;;;11.80;99.90;;;;;;5112608;28;20787;-60
2023/01/11 10:29:37;;;;;;;13.70;5.70;;;11.90;99.90;;;;;;5113051;28;20431;-61
2023/01/11 10:32:30;;;;;;;15.87;6.80;;;11.80;99.90;;;;;;5112522;28;20527;-60
2023/01/11 10:35:16;;;;;;;16.30;6.03;;;11.80;99.90;;;;;;5128381;28;20454;-60
2023/01/11 10:38:01;;;;;;;16.53;7.20;;;11.80;99.90;;;;;;5132676;28;20840;-60
2023/01/11 10:41:01;;;;;;;14.53;5.50;;;11.80;99.90;;;;;;5132849;28;20548;-60
2023/01/11 10:43:25;;;;;;;16.13;5.90;;;11.70;99.90;;;;;;5132886;28;20976;-61
2023/01/11 10:45:58;;;;;;;10.43;4.57;;;11.60;99.90;;;;;;5133760;28;20450;-61
2023/01/11 10:48:30;;;;;;;16.67;5.77;;;11.70;99.90;;;;;;5133143;28;20986;-60
2023/01/11 10:51:03;;;;;;;11.30;4.93;;;11.60;99.90;;;;;;5134923;27;20442;-60
2023/01/11 10:53:36;;;;;;;13.60;5.60;;;11.70;99.90;;;;;;5137217;27;20783;-60
2023/01/11 10:56:15;;;;;;;16.70;5.80;;;11.70;99.90;;;;;;5137030;27;20445;-60
2023/01/11 10:59:03;;;;;;;13.17;5.37;;;11.70;99.90;;;;;;5130365;27;20462;-60
2023/01/11 11:01:49;;;;;;;8.30;4.10;;;11.70;99.90;;;;;;5124812;27;20479;-61
2023/01/11 11:04:31;;;;;;;17.77;4.80;;;11.80;99.90;;;;;;5127026;27;20604;-60
2023/01/11 11:07:07;;;;;;;17.60;5.20;;;11.80;99.90;;;;;;5119356;27;20446;-61
2023/01/11 11:09:41;;;;;;;14.33;4.53;;;11.90;99.90;;;;;;5135669;27;20438;-60
2023/01/11 11:12:12;;;;;;;12.93;4.03;;;12.00;99.90;;;;;;5136408;27;20458;-60
2023/01/11 11:14:46;;;;;;;15.40;4.53;;;12.10;99.90;;;;;;5137257;27;20453;-60
2023/01/11 11:17:21;;;;;;;11.60;4.03;;;12.30;99.80;;;;;;5136717;27;20904;-61
2023/01/11 11:19:48;;;;;;;8.37;2.80;;;12.30;99.30;;;;;;5133277;27;20474;-60
2023/01/11 11:22:15;;;;;;;13.17;3.60;;;12.30;99.10;;;;;;5129015;27;20590;-60
2023/01/11 11:24:45;;;;;;;12.37;3.77;;;12.40;99.40;;;;;;5116281;28;20451;-61
2023/01/11 11:27:21;;;;;;;9.87;3.20;;;12.60;99.20;;;;;;5116082;28;20933;-61
2023/01/11 11:29:51;;;;;;;9.63;3.53;;;12.80;98.20;;;;;;5126840;27;20438;-60
2023/01/11 11:32:24;;;;;;;15.23;3.57;;;12.90;97.40;;;;;;5134644;27;21037;-60
2023/01/11 11:34:51;;;;;;;12.67;3.80;;;12.90;97.20;;;;;;5134849;27;20435;-61
2023/01/11 11:37:27;;;;;;;11.60;2.40;;;12.90;96.70;;;;;;5124531;27;20454;-61
2023/01/11 11:39:55;;;;;;;14.70;3.00;;;13.00;96.40;;;;;;5133836;27;20474;-60
2023/01/11 11:42:23;;;;;;;13.30;3.80;;;13.10;95.30;;;;;;5136245;27;20557;-61
2023/01/11 11:45:15;;;;;;;8.33;3.10;;;13.30;95.10;;;;;;5131340;27;20800;-60
2023/01/11 11:47:44;;;;;;;7.37;3.30;;;13.50;95.10;;;;;;5135951;27;20481;-60
2023/01/11 11:50:26;;;;;;;10.77;2.80;;;13.40;93.30;;;;;;5135388;27;20435;-60
2023/01/11 11:53:00;;;;;;;11.73;3.33;;;13.30;93.50;;;;;;5136174;27;20816;-61
2023/01/11 11:55:29;;;;;;;11.60;3.20;;;13.30;93.80;;;;;;5130669;27;20438;-60
2023/01/11 11:57:58;;;;;;;9.67;2.80;;;13.40;92.70;;;;;;5125653;27;20866;-60
2023/01/11 12:00:28;;;;;;;9.20;2.63;;;13.50;92.10;;;;;;5128708;27;20482;-59
2023/01/11 12:02:59;;;;;;;8.90;2.63;;;13.60;92.10;;;;;;5134960;27;20478;-59
2023/01/11 12:05:26;;;;;;;13.57;3.03;;;13.70;90.90;;;;;;5135536;27;20442;-61
2023/01/11 12:07:54;;;;;;;12.07;3.10;;;13.70;90.50;;;;;;5135717;27;20442;-60
2023/01/11 12:10:23;;;;;;;9.03;3.43;;;13.80;90.00;;;;;;5134198;27;20461;-60
2023/01/11 12:12:53;;;;;;;10.30;2.83;;;13.80;88.70;;;;;;5135975;27;20466;-60
2023/01/11 12:15:24;;;;;;;12.97;4.00;;;13.70;89.00;;;;;;5135655;27;20476;-60
2023/01/11 12:17:51;;;;;;;12.73;3.73;;;13.60;89.40;;;;;;5135976;27;20434;-60
2023/01/11 12:20:31;;;;;;;13.70;2.90;;;13.60;88.30;;;;;;5135654;27;20466;-60
2023/01/11 12:23:25;;;;;;;10.83;2.23;;;13.60;87.80;;;;;;5136328;27;20472;-60
2023/01/11 12:26:07;;;;;;;9.87;2.80;;;13.70;88.60;;;;;;5076370;27;20454;-61
2023/01/11 12:29:13;;;;;;;14.50;3.60;;;13.70;89.80;;;;;;5136553;27;20798;-61
2023/01/11 12:32:01;;;;;;;7.43;2.80;;;13.60;88.90;;;;;;5136293;27;20540;-60
2023/01/11 12:34:41;;;;;;;8.60;3.00;;;13.50;90.00;;;;;;5136861;27;20844;-61
2023/01/11 12:37:23;;;;;;;8.83;2.70;;;13.60;89.70;;;;;;5136687;27;20434;-60
2023/01/11 12:39:55;;;;;;;16.07;2.87;;;13.70;89.90;;;;;;5135396;27;20872;-60
2023/01/11 12:43:00;;;;;;;13.20;2.50;;;13.70;89.40;;;;;;5137089;27;20477;-60
2023/01/11 12:45:36;;;;;;;12.10;3.07;;;13.70;87.90;;;;;;5109556;27;20487;-60
2023/01/11 12:48:25;;;;;;;16.93;2.73;;;13.50;87.70;;;;;;5136507;27;20421;-61
2023/01/11 12:51:05;;;;;;;8.70;3.20;;;13.30;89.30;;;;;;5135423;27;20449;-61
2023/01/11 12:53:49;;;;;;;8.87;2.17;;;13.30;89.80;;;;;;5135193;27;20435;-60
2023/01/11 12:56:34;;;;;;;15.13;3.30;;;13.30;89.50;;;;;;5134807;27;20931;-61
2023/01/11 12:59:09;;;;;;;10.30;2.83;;;13.50;89.70;;;;;;5134763;27;20462;-61
2023/01/11 13:01:49;;;;;;;18.20;3.07;;;13.40;87.10;;;;;;5134633;27;20510;-61
2023/01/11 13:04:39;;;;;;;11.93;2.60;;;13.50;88.30;;;;;;5135015;27;20438;-61
2023/01/11 13:07:14;;;;;;;9.27;2.57;;;13.60;86.10;;;;;;5134958;27;20438;-61
2023/01/11 13:09:52;;;;;;;10.00;3.17;;;13.60;85.60;;;;;;5134968;27;20499;-61
2023/01/11 13:12:26;;;;;;;9.70;2.33;;;13.60;85.20;;;;;;5134751;27;20473;-61
2023/01/11 13:15:04;;;;;;;8.93;2.90;;;13.60;86.00;;;;;;5134560;27;20430;-61
2023/01/11 13:17:39;;;;;;;11.33;2.70;;;13.80;85.10;;;;;;5134831;27;20430;-61
2023/01/11 13:20:27;;;;;;;12.83;2.70;;;13.80;84.90;;;;;;5134717;27;20879;-61
2023/01/11 13:22:59;;;;;;;12.07;2.90;;;13.60;84.50;;;;;;5134729;27;20466;-61